Πλησιέστερες Αναφορές METAR

 

LGTS - Thessaloniki/Makedonia-Elev 7m
Distance from station: Ν 13km
Ενημερώθηκε: 22/11/2019 07:50
Ασθενής βροχή, Σχεδόν νεφελώδης
Ασθενής βροχή, Σχεδόν νεφελώδης
 Ανεμος από Β
Ανεμος: Β 7 km/h
Θερμοκρασία: 14°C
Σημείο Δρόσου: 13°C
Υγρασία: 94%
Βαρόμετρο: 1016 hPa
Συνθήκες: Ασθενής βροχή
Clouds: Σχεδόν νεφελώδης
Visibility: 8 km
Cloud details: Few Clouds 305 m
Few Clouds 610 m
Σχεδόν νεφελώδης 914 m
2019/11/22 05:50 LGTS 220550Z 35004KT 8000 -RA FEW010 FEW020TCU BKN030 14/13 Q1016 NOSIG
LGAV - Athens/Elef. Venizelos-Elev 94m
Distance from station: ΝΝΑ 312km
Ενημερώθηκε: 22/11/2019 07:50
Σχεδόν νεφελώδης
Σχεδόν νεφελώδης
 Ανεμος από varies
Ανεμος: varies 2 km/h
Θερμοκρασία: 14°C
Σημείο Δρόσου: 11°C
Υγρασία: 82%
Βαρόμετρο: 1014 hPa
Clouds: Σχεδόν νεφελώδης
Visibility: 10 km
Cloud details: Few Clouds 610 m
Σχεδόν νεφελώδης 1829 m
2019/11/22 05:50 LGAV 220550Z VRB01KT 9999 FEW020 BKN060 14/11 Q1014 NOSIG
 
LGAL - Alexandroupolis-Elev 3m
Distance from station: Α 251km
Ενημερώθηκε: 22/11/2019 07:50
Μερικώς νεφελώδης
Μερικώς νεφελώδης
 Ανεμος από ΒΑ
Ανεμος: ΒΑ 28 km/h
Θερμοκρασία: 13°C
Σημείο Δρόσου: 10°C
Υγρασία: 82%
Βαρόμετρο: 1015 hPa
Clouds: Μερικώς νεφελώδης
Visibility: 10 km
Cloud details: Few Clouds 457 m
Μερικώς νεφελώδης 1067 m
2019/11/22 05:50 LGAL 220550Z 05015KT 9999 FEW015 SCT035 13/10 Q1015
LGKV - Kavala/Crysoupolis-Elev 5m
Distance from station: ΑΒΑ 144km
Ενημερώθηκε: 22/11/2019 07:50
Ασθενής βροχή, Συννεφιά
Ασθενής βροχή, Συννεφιά
 Ανεμος από ΑΒΑ
Ανεμος: ΑΒΑ 19 km/h
Θερμοκρασία: 13°C
Σημείο Δρόσου: 12°C
Υγρασία: 94%
Βαρόμετρο: 1014 hPa
Συνθήκες: Ασθενής βροχή
Clouds: Συννεφιά
Visibility: 8 km
Cloud details: Few Clouds 305 m
Few Clouds 549 m
Σχεδόν νεφελώδης 762 m
Συννεφιά 2438 m
2019/11/22 05:50 LGKV 220550Z 06010KT 8000 -RA FEW010 FEW018TCU BKN025 OVC080 13/12 Q1014
 
LGSK - Skiathos Island-Elev 15m
Distance from station: ΝΝΑ 168km
Ενημερώθηκε: 21/11/2019 15:50
Μη Ενημερωμένο!
Μερικώς νεφελώδης
Μερικώς νεφελώδης
 Ανεμος από Β
Ανεμος: Β 13 km/h
Θερμοκρασία: 19°C
Σημείο Δρόσου: 14°C
Υγρασία: 73%
Βαρόμετρο: 1013 hPa
Clouds: Μερικώς νεφελώδης
Visibility: 10 km
Cloud details: Few Clouds 305 m
Μερικώς νεφελώδης 762 m
2019/11/21 13:50 LGSK 211350Z 01007KT 9999 FEW010 SCT025 19/14 Q1013
LGLM - Limnos Island-Elev 5m
Distance from station: ΑΝΑ 210km
Ενημερώθηκε: 22/11/2019 07:50
Ασθενής βροχή, Σχεδόν νεφελώδης
Ασθενής βροχή, Σχεδόν νεφελώδης
 Ανεμος από Α
Ανεμος: Α 26 km/h
Θερμοκρασία: 15°C
Σημείο Δρόσου: 14°C
Υγρασία: 94%
Βαρόμετρο: 1012 hPa
Συνθήκες: Ασθενής βροχή
Clouds: Σχεδόν νεφελώδης
Visibility: 10 km
Cloud details: Few Clouds 305 m
Few Clouds 549 m
Σχεδόν νεφελώδης 762 m
2019/11/22 05:50 LGLM 220550Z 10014KT 9999 -RA FEW010 FEW018TCU BKN025 15/14 Q1012
 
LGMT - Mitilini Island-Elev 17m
Distance from station: ΑΝΑ 358km
Ενημερώθηκε: 22/11/2019 07:50
Ασθενής βροχή, Σχεδόν νεφελώδης
Ασθενής βροχή, Σχεδόν νεφελώδης
 Ανεμος από Ν
Ανεμος: Ν 9 km/h
Θερμοκρασία: 16°C
Σημείο Δρόσου: 15°C
Υγρασία: 94%
Βαρόμετρο: 1015 hPa
Συνθήκες: Ασθενής βροχή
Clouds: Σχεδόν νεφελώδης
Visibility: 10 km
Cloud details: Few Clouds 549 m
Σχεδόν νεφελώδης 762 m
2019/11/22 05:50 LGMT 220550Z 19005KT 150V230 9999 -RA FEW018TCU BKN025 16/15 Q1015
LGSY - Skiros Island-Elev 15m
Distance from station: ΝΑ 227km
Ενημερώθηκε: 22/11/2019 07:50
Μερικώς νεφελώδης
Μερικώς νεφελώδης
 Ανεμος από ΔΒΔ
Ανεμος: ΔΒΔ 15 km/h
Θερμοκρασία: 16°C
Σημείο Δρόσου: 13°C
Υγρασία: 83%
Βαρόμετρο: 1012 hPa
Clouds: Μερικώς νεφελώδης
Visibility: 10 km
Cloud details: Few Clouds 457 m
Μερικώς νεφελώδης 610 m
2019/11/22 05:50 LGSY 220550Z 29008KT 9999 FEW015 SCT020 16/13 Q1012 RMK BKN080 BLU
 
LGKZ - Kozani-Elev 628m
Distance from station: ΔΝΔ 102km
Ενημερώθηκε: 22/11/2019 07:50
Σχεδόν νεφελώδης
Σχεδόν νεφελώδης
 Ανεμος από ΒΒΔ
Ανεμος: ΒΒΔ 17 km/h
Θερμοκρασία: 9°C
Wind Chill: 7°C
Σημείο Δρόσου: 7°C
Υγρασία: 87%
Βαρόμετρο: 1015 hPa
Clouds: Σχεδόν νεφελώδης
Visibility: 10 km
Cloud details: Μερικώς νεφελώδης 762 m
Σχεδόν νεφελώδης 2134 m
2019/11/22 05:50 LGKZ 220550Z 34009KT 9999 SCT025 BKN070 09/07 Q1015
LGIO - Ioannina-Elev 476m
Distance from station: ΔΝΔ 209km
Ενημερώθηκε: 22/11/2019 07:50

 Ανεμος από varies
Ανεμος: varies 4 km/h
Θερμοκρασία: 7°C
Σημείο Δρόσου: 7°C
Υγρασία: 100%
Βαρόμετρο: 1016 hPa
2019/11/22 05:50 LGIO 220550Z AUTO VRB02KT //// // ////// 07/07 Q1016 RE//
 
LGZA - Zakinthos-Elev 3m
Distance from station: ΝΝΔ 367km
Ενημερώθηκε: 22/11/2019 07:50
Μερικώς νεφελώδης
Μερικώς νεφελώδης
 Ανεμος από calm
Ανεμος: Απνοια
Θερμοκρασία: 11°C
Σημείο Δρόσου: 10°C
Υγρασία: 94%
Βαρόμετρο: 1015 hPa
Clouds: Μερικώς νεφελώδης
Visibility: 10 km
Cloud details: Μερικώς νεφελώδης 549 m
2019/11/22 05:50 LGZA 220550Z 00000KT 9999 SCT018 11/10 Q1015
LGKR - Corfu Island-Elev 2m
Distance from station: ΔΝΔ 282km
Ενημερώθηκε: 22/11/2019 07:50
Few Clouds
Few Clouds
 Ανεμος από varies
Ανεμος: varies 4 km/h
Θερμοκρασία: 9°C
Σημείο Δρόσου: 9°C
Υγρασία: 100%
Βαρόμετρο: 1015 hPa
Clouds: Few Clouds
Visibility: 10 km
Cloud details: Few Clouds 610 m
2019/11/22 05:50 LGKR 220550Z VRB02KT 9999 FEW020 09/09 Q1015 NOSIG
 
LGSO - Syros Island-Elev 72m
Distance from station: ΝΝΑ 397km
Ενημερώθηκε: 22/11/2019 07:50

 Ανεμος από ΔΝΔ
Ανεμος: ΔΝΔ 15 km/h
Θερμοκρασία: 16°C
Σημείο Δρόσου: 13°C
Υγρασία: 83%
Βαρόμετρο: 1014 hPa
2019/11/22 05:50 LGSO 220550Z AUTO 25008KT //// // ////// 16/13 Q1014 RE//
LGMK - Mikonos Island-Elev 123m
Distance from station: ΝΝΑ 412km
Ενημερώθηκε: 22/11/2019 07:50
Μερικώς νεφελώδης
Μερικώς νεφελώδης
 Ανεμος από varies
Ανεμος: varies 6 km/h
Θερμοκρασία: 17°C
Σημείο Δρόσου: 15°C
Υγρασία: 88%
Βαρόμετρο: 1014 hPa
Clouds: Μερικώς νεφελώδης
Visibility: 10 km
Cloud details: Μερικώς νεφελώδης 305 m
Μερικώς νεφελώδης 610 m
2019/11/22 05:50 LGMK 220550Z VRB03KT 9999 SCT010 SCT020 17/15 Q1014
 
LGSR - Santorini Island-Elev 40m
Distance from station: ΝΝΑ 520km
Ενημερώθηκε: 22/11/2019 07:50
Μερικώς νεφελώδης
Μερικώς νεφελώδης
 Ανεμος από varies
Ανεμος: varies 0 km/h
Θερμοκρασία: 16°C
Σημείο Δρόσου: 13°C
Υγρασία: 83%
Βαρόμετρο: 1014 hPa
Clouds: Μερικώς νεφελώδης
Visibility: 10 km
Cloud details: Μερικώς νεφελώδης 610 m
2019/11/22 05:50 LGSR 220550Z /////KT 9999 SCT020 16/13 Q1014
LGKL - Kalamata-Elev 8m
Distance from station: Ν 405km
Ενημερώθηκε: 22/11/2019 07:50
Mist, Few clouds
Mist, Few clouds
 Ανεμος από Β
Ανεμος: Β 9 km/h
Θερμοκρασία: 12°C
Σημείο Δρόσου: 11°C
Υγρασία: 94%
Βαρόμετρο: 1015 hPa
Συνθήκες: Mist
Clouds: Few Clouds
Visibility: 8 km
Cloud details: Few Clouds 762 m
2019/11/22 05:50 LGKL 220550Z 35005KT 8000 4000SE BR FEW025 12/11 Q1015
 
LGIR - Iraklion/Crete-Elev 5m
Distance from station: ΝΝΑ 622km
Ενημερώθηκε: 22/11/2019 07:50
Few Clouds
Few Clouds
 Ανεμος από Ν
Ανεμος: Ν 9 km/h
Θερμοκρασία: 16°C
Σημείο Δρόσου: 14°C
Υγρασία: 88%
Βαρόμετρο: 1014 hPa
Clouds: Few Clouds
Visibility: 10 km
Cloud details: Few Clouds 610 m
2019/11/22 05:50 LGIR 220550Z 17005KT 9999 FEW020 16/14 Q1014 NOSIG
LGRP - Rhodes-Elev 5m
Distance from station: ΝΑ 649km
Ενημερώθηκε: 22/11/2019 07:50
Thunderstorm, Σχεδόν νεφελώδης
Thunderstorm, Σχεδόν νεφελώδης
 Ανεμος από ΑΝΑ
Ανεμος: ΑΝΑ 13 km/h
Θερμοκρασία: 18°C
Σημείο Δρόσου: 16°C
Υγρασία: 88%
Βαρόμετρο: 1014 hPa
Συνθήκες: Thunderstorm
Clouds: Σχεδόν νεφελώδης
Visibility: 8 km
Cloud details: Few Clouds 305 m
Few Clouds 549 m
Σχεδόν νεφελώδης 610 m
2019/11/22 05:50 LGRP 220550Z 12007KT 8000 TS FEW010 FEW018CB BKN020 18/16 Q1014 NOSIG
 
LWOH - Ohrid/FYROM-Elev 761m
Distance from station: ΔΒΔ 188km
Ενημερώθηκε: 22/11/2019 08:00
Αίθριος
Αίθριος
 Ανεμος από ΒΒΔ
Ανεμος: ΒΒΔ 7 km/h
Θερμοκρασία: 4°C
Wind Chill: 2°C
Σημείο Δρόσου: 1°C
Υγρασία: 81%
Βαρόμετρο: 1015 hPa
Συνθήκες: Αίθριος
Visibility: greater than 10 km
2019/11/22 06:00 LWOH 220600Z 33004KT CAVOK 04/01 Q1015
LBSF - Sofia/Bulgaria-Elev 595m
Distance from station: Β 227km
Ενημερώθηκε: 22/11/2019 08:00
Ασθενής βροχή, Συννεφιά
Ασθενής βροχή, Συννεφιά
 Ανεμος από ΒΒΑ
Ανεμος: ΒΒΑ 6 km/h
Θερμοκρασία: 9°C
Σημείο Δρόσου: 7°C
Υγρασία: 87%
Βαρόμετρο: 1017 hPa
Συνθήκες: Ασθενής βροχή
Clouds: Συννεφιά
Visibility: 7 km
Cloud details: Few Clouds 457 m
Συννεφιά 610 m
2019/11/22 06:00 LBSF 220600Z 03003KT 7000 -RA FEW015 OVC020 09/07 Q1017 TEMPO 4000 BR
Σημερινά ρεκόρ Μετεωρολογικού Σταθμού
Η Ελάχιστη Θερμοκρασία των 5.2°C ξεπέρασε τη Ελάχιστη Μηνιαία τιμή των 6.6°C που σημειώθηκε στις 15/11/2019 κατά -1.4°
Η ελάχιστη τιμή Αίσθησης Ψύχρας των 4.3°C ξεπέρασε τη Ελάχιστη Μηνιαία τιμή των 5.7°C που σημειώθηκε στις 18/11/2019 κατά -1.4°